createdAt,value
2023-12-04T00:02:18.810Z,5.81898
2023-12-04T00:05:20.883Z,5.9406
2023-12-04T00:08:22.432Z,6.03721
2023-12-04T00:11:23.949Z,5.93079
2023-12-04T00:14:25.463Z,5.94979
2023-12-04T00:17:26.979Z,5.93617
2023-12-04T00:20:28.912Z,5.91273
2023-12-04T00:23:30.948Z,5.9178
2023-12-04T00:26:32.516Z,5.94472
2023-12-04T00:29:34.036Z,5.99223
2023-12-04T00:32:35.896Z,5.9859
2023-12-04T00:35:37.436Z,6.00427
2023-12-04T00:38:38.932Z,6.02802
2023-12-04T00:41:40.432Z,6.01218
2023-12-04T00:44:41.911Z,6.02549
2023-12-04T00:47:43.451Z,6.06919
2023-12-04T00:50:44.967Z,6.15693
2023-12-04T00:53:46.503Z,6.1791
2023-12-04T00:56:48.015Z,6.17118
2023-12-04T00:59:49.485Z,6.22027
2023-12-04T01:02:51.063Z,6.21457
2023-12-04T01:05:52.596Z,6.19905
2023-12-04T01:08:54.094Z,6.1734
2023-12-04T01:11:55.628Z,6.17086
2023-12-04T01:14:57.138Z,6.22692
2023-12-04T01:17:58.691Z,6.27127
2023-12-04T01:21:00.221Z,6.28172
2023-12-04T01:24:01.719Z,6.27982
2023-12-04T01:27:03.276Z,6.31782
2023-12-04T01:30:04.764Z,6.32226
2023-12-04T01:33:06.340Z,6.3495
2023-12-04T01:36:07.859Z,6.36755
2023-12-04T01:39:09.382Z,6.34855
2023-12-04T01:42:10.895Z,6.38117
2023-12-04T01:45:12.446Z,6.39796
2023-12-04T01:48:14.014Z,6.40271
2023-12-04T01:51:15.561Z,6.36787
2023-12-04T01:54:17.081Z,6.47365
2023-12-04T01:57:18.610Z,6.44261
2023-12-04T02:00:20.074Z,6.45718
2023-12-04T02:03:22.157Z,6.51071
2023-12-04T02:06:23.703Z,6.60098
2023-12-04T02:09:25.197Z,6.65102
2023-12-04T02:12:26.816Z,6.69821
2023-12-04T02:15:28.372Z,6.67319
2023-12-04T02:18:29.962Z,6.66717
2023-12-04T02:21:32.257Z,6.67858
2023-12-04T02:24:34.001Z,6.69821
2023-12-04T02:27:35.551Z,6.71975
2023-12-04T02:30:37.104Z,6.7416
2023-12-04T02:33:38.676Z,6.73527
2023-12-04T02:36:40.270Z,6.7302
2023-12-04T02:39:41.802Z,6.74604
2023-12-04T02:42:44.314Z,6.76314
2023-12-04T02:45:45.867Z,6.77676
2023-12-04T02:48:47.500Z,6.79291
2023-12-04T02:51:49.168Z,6.79386
2023-12-04T02:54:50.760Z,6.80622
2023-12-04T02:57:52.328Z,6.86354
2023-12-04T03:00:53.860Z,6.92277
2023-12-04T03:03:55.430Z,6.93481
2023-12-04T03:06:56.969Z,6.97852
2023-12-04T03:09:58.489Z,6.98548
2023-12-04T03:13:00.013Z,7.02349
2023-12-04T03:16:01.644Z,7.08082
2023-12-04T03:19:03.299Z,7.06403
2023-12-04T03:22:04.925Z,7.01969
2023-12-04T03:25:06.513Z,7.00766
2023-12-04T03:28:08.039Z,7.04693
2023-12-04T03:31:09.579Z,7.01811
2023-12-04T03:34:11.211Z,7.0539
2023-12-04T03:37:12.837Z,7.07164
2023-12-04T03:40:14.445Z,7.0634
2023-12-04T03:43:15.986Z,7.00037
2023-12-04T03:46:19.191Z,7.00607
2023-12-04T03:49:21.020Z,7.08684
2023-12-04T03:52:22.576Z,6.95286
2023-12-04T03:55:24.116Z,6.78975
2023-12-04T03:58:25.613Z,6.7074
2023-12-04T04:01:27.201Z,6.76473
2023-12-04T04:04:29.276Z,6.74952
2023-12-04T04:07:30.821Z,6.73242
2023-12-04T04:10:32.868Z,6.734
2023-12-04T04:13:34.377Z,6.76948
2023-12-04T04:16:35.903Z,6.72545
2023-12-04T04:19:37.880Z,6.66971
2023-12-04T04:22:39.408Z,6.64184
2023-12-04T04:25:40.919Z,6.64184
2023-12-04T04:28:42.405Z,6.65387
2023-12-04T04:31:43.890Z,6.59369
2023-12-04T04:34:45.504Z,6.59876
2023-12-04T04:37:48.872Z,6.53573
2023-12-04T04:40:50.740Z,6.54808
2023-12-04T04:43:52.277Z,6.55727
2023-12-04T04:46:53.757Z,6.53446
2023-12-04T04:49:55.344Z,6.49456
2023-12-04T04:52:56.856Z,6.50374
2023-12-04T04:55:58.359Z,6.45718
2023-12-04T04:59:00.470Z,6.4689
2023-12-04T05:02:02.036Z,6.46257
2023-12-04T05:05:03.587Z,6.41348
2023-12-04T05:08:05.105Z,6.40619
2023-12-04T05:11:06.625Z,6.37008
2023-12-04T05:14:08.178Z,6.28742
2023-12-04T05:17:09.688Z,6.27285
2023-12-04T05:20:11.181Z,6.2095
2023-12-04T05:23:12.671Z,6.14964
2023-12-04T05:26:14.147Z,6.0863
2023-12-04T05:29:15.770Z,5.97323
2023-12-04T05:32:17.274Z,5.91653
2023-12-04T05:35:18.757Z,5.87283
2023-12-04T05:38:20.254Z,5.80283
2023-12-04T05:41:21.721Z,5.79618
2023-12-04T05:44:23.309Z,5.76324
2023-12-04T05:47:24.865Z,5.72777
2023-12-04T05:50:26.357Z,5.72903
2023-12-04T05:53:27.864Z,5.75849
2023-12-04T05:56:29.385Z,5.77781
2023-12-04T05:59:30.886Z,5.8079
2023-12-04T06:02:32.441Z,5.77147
2023-12-04T06:05:34.020Z,5.74899
2023-12-04T06:08:35.544Z,5.74455
2023-12-04T06:11:37.047Z,5.71636
2023-12-04T06:14:38.535Z,5.72777
2023-12-04T06:17:40.073Z,5.69799
2023-12-04T06:20:41.574Z,5.69799
2023-12-04T06:23:43.069Z,5.70433
2023-12-04T06:26:44.542Z,5.67044
2023-12-04T06:29:47.714Z,5.65334
2023-12-04T06:32:50.547Z,5.66917
2023-12-04T06:35:52.047Z,5.70686
2023-12-04T06:38:53.545Z,5.74614
2023-12-04T06:41:55.053Z,5.76672
2023-12-04T06:44:56.549Z,5.78224
2023-12-04T06:47:58.079Z,5.78161
2023-12-04T06:50:59.587Z,5.70053
2023-12-04T06:54:01.097Z,5.69419
2023-12-04T06:57:02.586Z,5.67867
2023-12-04T07:00:04.097Z,5.69768
2023-12-04T07:03:22.217Z,5.63338
2023-12-04T07:06:23.729Z,5.61533
2023-12-04T07:09:25.260Z,5.60108
2023-12-04T07:12:27.210Z,5.60614
2023-12-04T07:15:28.713Z,5.60614
2023-12-04T07:18:30.324Z,5.6375
2023-12-04T07:21:31.885Z,5.65048
2023-12-04T07:24:33.383Z,5.60678
2023-12-04T07:27:35.014Z,5.59949
2023-12-04T07:30:36.601Z,5.6185
2023-12-04T07:33:38.291Z,5.63465
2023-12-04T07:36:39.924Z,5.62641
2023-12-04T07:39:41.847Z,5.60108
2023-12-04T07:42:43.533Z,5.63718
2023-12-04T07:45:45.341Z,5.64383
2023-12-04T07:48:47.064Z,5.66062
2023-12-04T07:51:49.577Z,5.71668
2023-12-04T07:54:51.788Z,5.77401
2023-12-04T07:57:53.488Z,5.82152
2023-12-04T08:00:55.036Z,5.88423
2023-12-04T08:03:56.636Z,5.90101
2023-12-04T08:06:58.218Z,5.86396
2023-12-04T08:09:59.808Z,5.75279
2023-12-04T08:13:01.394Z,5.72935
2023-12-04T08:16:03.060Z,5.73252
2023-12-04T08:19:04.828Z,5.65999
2023-12-04T08:22:06.470Z,5.76989
2023-12-04T08:25:08.041Z,5.8345
2023-12-04T08:28:09.577Z,5.90608
2023-12-04T08:31:11.276Z,5.90101
2023-12-04T08:34:12.915Z,5.83038
2023-12-04T08:37:14.461Z,5.8326
2023-12-04T08:40:16.079Z,5.87314
2023-12-04T08:43:17.660Z,5.85477
2023-12-04T08:46:20.480Z,5.88581
2023-12-04T08:49:23.405Z,5.74138
2023-12-04T08:52:25.926Z,5.78193
2023-12-04T08:55:27.458Z,5.84432
2023-12-04T08:58:29.830Z,5.8003
2023-12-04T09:01:31.460Z,5.81645
2023-12-04T09:04:33.277Z,5.84939
2023-12-04T09:10:49.281Z,5.94631
2023-12-04T09:14:04.154Z,6.111
2023-12-04T09:17:05.805Z,6.12779
2023-12-04T09:20:07.488Z,6.06729
2023-12-04T09:23:09.667Z,6.07806
2023-12-04T09:26:11.356Z,6.04164
2023-12-04T09:29:12.846Z,5.97354
2023-12-04T09:32:14.366Z,5.91938
2023-12-04T09:35:15.897Z,5.9235
2023-12-04T09:38:17.389Z,5.78193
2023-12-04T09:41:18.877Z,5.65112
2023-12-04T09:44:20.372Z,5.61596
2023-12-04T09:47:21.881Z,5.64193
2023-12-04T09:50:23.614Z,5.71256
2023-12-04T09:53:25.350Z,5.81645
2023-12-04T09:56:26.827Z,5.85731
2023-12-04T09:59:28.335Z,5.85224
2023-12-04T10:02:29.899Z,5.85477
2023-12-04T10:05:31.562Z,5.76736
2023-12-04T10:08:34.080Z,5.86776
2023-12-04T10:11:35.629Z,5.83513
2023-12-04T10:14:37.143Z,5.82247
2023-12-04T10:17:39.004Z,5.88233
2023-12-04T10:20:40.546Z,5.89436
2023-12-04T10:23:42.096Z,5.97544
2023-12-04T10:26:43.631Z,5.86522
2023-12-04T10:29:45.140Z,5.99318
2023-12-04T10:32:46.770Z,6.07173
2023-12-04T10:35:48.412Z,6.09928
2023-12-04T10:38:49.862Z,6.07458
2023-12-04T10:41:51.390Z,6.11195
2023-12-04T10:44:53.241Z,6.05874
2023-12-04T10:47:54.798Z,6.02264
2023-12-04T10:50:56.322Z,5.96784
2023-12-04T10:53:57.869Z,5.9406
2023-12-04T10:56:59.410Z,5.9821
2023-12-04T11:00:00.897Z,5.94155
2023-12-04T11:03:03.461Z,6.04322
2023-12-04T11:06:05.097Z,6.07204
2023-12-04T11:09:06.729Z,5.94631
2023-12-04T11:12:08.338Z,5.95422
2023-12-04T11:15:09.990Z,5.97988
2023-12-04T11:18:11.612Z,5.92889
2023-12-04T11:21:13.239Z,5.9045
2023-12-04T11:24:15.793Z,5.99413
2023-12-04T11:27:17.379Z,6.0258
2023-12-04T11:30:18.967Z,6.11069
2023-12-04T11:33:20.639Z,6.13729
2023-12-04T11:36:22.318Z,6.17815
2023-12-04T11:39:23.942Z,6.24593
2023-12-04T11:42:25.533Z,6.18765
2023-12-04T11:45:27.351Z,6.30737
2023-12-04T11:48:29.046Z,6.30262
2023-12-04T11:51:30.661Z,6.39004
2023-12-04T11:54:32.272Z,6.31909
2023-12-04T11:57:33.884Z,6.33239
2023-12-04T12:00:35.477Z,6.38402
2023-12-04T12:03:37.079Z,6.32162
2023-12-04T12:06:39.686Z,6.3742
2023-12-04T12:09:41.312Z,6.42804
2023-12-04T12:12:42.861Z,6.43691
2023-12-04T12:15:44.391Z,6.47524
2023-12-04T12:18:46.045Z,6.48696
2023-12-04T12:21:47.643Z,6.36502
2023-12-04T12:24:49.167Z,6.41062
2023-12-04T12:27:51.348Z,6.45877
2023-12-04T12:30:52.847Z,6.40239
2023-12-04T12:33:54.427Z,6.40429
2023-12-04T12:36:56.123Z,6.42804
2023-12-04T12:39:57.908Z,6.42266
2023-12-04T12:43:03.256Z,6.43501
2023-12-04T12:46:06.614Z,6.37642
2023-12-04T12:49:08.157Z,6.39511
2023-12-04T12:52:10.051Z,6.39511
2023-12-04T12:55:11.831Z,6.38909
2023-12-04T12:58:13.392Z,6.22186
2023-12-04T13:01:14.957Z,6.11702
2023-12-04T13:04:16.712Z,6.12716
2023-12-04T13:07:18.397Z,6.24561
2023-12-04T13:10:19.956Z,6.14362
2023-12-04T13:13:21.488Z,6.26081
2023-12-04T13:16:23.110Z,6.21425
2023-12-04T13:19:25.224Z,6.23548
2023-12-04T13:22:28.345Z,6.24783
2023-12-04T13:25:31.334Z,6.1658
2023-12-04T13:28:40.220Z,6.06191
2023-12-04T13:31:45.565Z,6.12969
2023-12-04T13:34:47.065Z,6.15503
2023-12-04T13:37:48.603Z,6.1186
2023-12-04T13:40:50.148Z,6.15978
2023-12-04T13:43:51.709Z,6.22566
2023-12-04T13:46:53.235Z,6.18955
2023-12-04T13:49:54.851Z,6.09802
2023-12-04T13:52:56.547Z,6.02802
2023-12-04T13:55:58.315Z,6.08313
2023-12-04T13:59:00.066Z,6.12684
2023-12-04T14:02:01.895Z,6.12557
2023-12-04T14:05:03.762Z,6.09897
2023-12-04T14:08:05.848Z,5.97228
2023-12-04T14:11:08.106Z,5.92255
2023-12-04T14:14:09.635Z,5.99318
2023-12-04T14:17:11.127Z,6.07078
2023-12-04T14:20:12.693Z,5.96309
2023-12-04T14:23:14.237Z,6.02454
2023-12-04T14:26:15.731Z,6.18037
2023-12-04T14:29:17.308Z,6.23231
2023-12-04T14:32:18.876Z,6.31054
2023-12-04T14:35:20.439Z,6.289
2023-12-04T14:38:22.016Z,6.31402
2023-12-04T14:41:23.540Z,6.38149
2023-12-04T14:44:25.182Z,6.44737
2023-12-04T14:47:26.762Z,6.39764
2023-12-04T14:50:28.280Z,6.34443
2023-12-04T14:53:30.313Z,6.32954
2023-12-04T14:56:34.337Z,6.40682
2023-12-04T14:59:37.553Z,6.39669
2023-12-04T15:02:39.230Z,6.26081
2023-12-04T15:05:40.837Z,6.36945
2023-12-04T15:08:42.362Z,6.4404
2023-12-04T15:11:43.889Z,6.33461
2023-12-04T15:14:45.431Z,6.33714
2023-12-04T15:17:46.944Z,6.47777
2023-12-04T15:20:48.451Z,6.45148
2023-12-04T15:23:49.942Z,6.48506
2023-12-04T15:26:51.476Z,6.48696
2023-12-04T15:29:52.971Z,6.5408
2023-12-04T15:32:54.496Z,6.39637
2023-12-04T15:35:56.175Z,6.33746
2023-12-04T15:38:57.813Z,6.36882
2023-12-04T15:41:59.514Z,6.29185
2023-12-04T15:45:01.066Z,6.29122
2023-12-04T15:48:02.717Z,6.27855
2023-12-04T15:51:04.328Z,6.36312
2023-12-04T15:54:05.904Z,6.33398
2023-12-04T15:57:07.522Z,6.34031
2023-12-04T16:00:09.052Z,6.41759
2023-12-04T16:03:10.664Z,6.45433
2023-12-04T16:06:12.325Z,6.29344
2023-12-04T16:09:13.924Z,6.32289
2023-12-04T16:12:15.572Z,6.36375
2023-12-04T16:15:17.127Z,6.33176
2023-12-04T16:18:18.708Z,6.23706
2023-12-04T16:21:20.288Z,6.26588
2023-12-04T16:24:21.911Z,6.27728
2023-12-04T16:27:23.460Z,6.29249
2023-12-04T16:30:25.051Z,6.22946
2023-12-04T16:33:26.710Z,6.16421
2023-12-04T16:36:28.297Z,6.18923
2023-12-04T16:39:30.393Z,6.289
2023-12-04T16:42:33.014Z,6.29185
2023-12-04T16:45:34.610Z,6.24149
2023-12-04T16:48:36.205Z,6.181
2023-12-04T16:51:37.877Z,6.23294
2023-12-04T16:54:39.476Z,6.27348
2023-12-04T16:57:41.051Z,6.33493
2023-12-04T17:00:42.689Z,6.38054
2023-12-04T17:03:44.357Z,6.34981
2023-12-04T17:06:45.973Z,6.33936
2023-12-04T17:09:47.556Z,6.28869
2023-12-04T17:12:49.238Z,6.3457
2023-12-04T17:15:50.788Z,6.33841
2023-12-04T17:18:52.390Z,6.31022
2023-12-04T17:21:53.936Z,6.27633
2023-12-04T17:24:55.665Z,6.21204
2023-12-04T17:27:57.639Z,6.22692
2023-12-04T17:30:59.135Z,6.27
2023-12-04T17:34:00.716Z,6.21711
2023-12-04T17:37:02.349Z,6.32099
2023-12-04T17:40:03.904Z,6.30072
2023-12-04T17:43:05.384Z,6.28235
2023-12-04T17:46:06.865Z,6.25986
2023-12-04T17:49:08.424Z,6.17878
2023-12-04T17:52:10.075Z,6.1943
2023-12-04T17:55:11.593Z,6.19462
2023-12-04T17:58:13.111Z,6.15788
2023-12-04T18:01:14.823Z,6.19683
2023-12-04T18:04:16.493Z,6.28298
2023-12-04T18:07:18.068Z,6.28013
2023-12-04T18:10:19.572Z,6.32004
2023-12-04T18:13:21.052Z,6.23389
2023-12-04T18:16:23.393Z,6.18955
2023-12-04T18:19:25.842Z,6.20792
2023-12-04T18:22:27.405Z,6.27823
2023-12-04T18:25:28.906Z,6.28742
2023-12-04T18:28:30.438Z,6.28805
2023-12-04T18:31:31.974Z,6.27253
2023-12-04T18:34:33.601Z,6.31624
2023-12-04T18:37:35.127Z,6.29217
2023-12-04T18:40:36.646Z,6.26968
2023-12-04T18:43:38.169Z,6.24719
2023-12-04T18:46:39.668Z,6.24814
2023-12-04T18:49:41.280Z,6.26683
2023-12-04T18:52:42.812Z,6.25036
2023-12-04T18:55:44.295Z,6.23579
2023-12-04T18:58:45.777Z,6.26398
2023-12-04T19:01:47.337Z,6.27697
2023-12-04T19:04:49.146Z,6.19177
2023-12-04T19:07:50.760Z,6.1753
2023-12-04T19:10:52.331Z,6.16611
2023-12-04T19:13:53.819Z,6.23421
2023-12-04T19:16:55.325Z,6.22977
2023-12-04T19:19:56.826Z,6.23833
2023-12-04T19:22:58.311Z,6.27665
2023-12-04T19:26:00.180Z,6.25131
2023-12-04T19:29:02.657Z,6.21299
2023-12-04T19:32:04.225Z,6.24434
2023-12-04T19:35:05.755Z,6.24529
2023-12-04T19:38:07.269Z,6.33556
2023-12-04T19:41:08.763Z,6.36058
2023-12-04T19:44:10.359Z,6.42614
2023-12-04T19:47:11.871Z,6.3913
2023-12-04T19:50:13.367Z,6.34981
2023-12-04T19:53:14.877Z,6.37008
2023-12-04T19:56:16.384Z,6.34063
2023-12-04T19:59:17.909Z,6.34126
2023-12-04T20:02:19.401Z,6.36185
2023-12-04T20:05:21.105Z,6.30801
2023-12-04T20:08:22.654Z,6.27538
2023-12-04T20:11:24.152Z,6.37737
2023-12-04T20:14:25.656Z,6.37642
2023-12-04T20:17:27.424Z,6.37388
2023-12-04T20:20:28.967Z,6.39732
2023-12-04T20:23:30.534Z,6.35995
2023-12-04T20:26:32.069Z,6.39954
2023-12-04T20:29:33.576Z,6.40651
2023-12-04T20:32:35.103Z,6.44515
2023-12-04T20:35:36.658Z,6.4727
2023-12-04T20:38:38.166Z,6.50976
2023-12-04T20:41:39.700Z,6.5484
2023-12-04T20:44:41.198Z,6.42741
2023-12-04T20:47:42.708Z,6.43691
2023-12-04T20:50:44.205Z,6.39257
2023-12-04T20:53:45.705Z,6.4309
2023-12-04T20:56:47.204Z,6.45465
2023-12-04T20:59:48.709Z,6.4537
2023-12-04T21:02:50.207Z,6.42266
2023-12-04T21:05:51.728Z,6.40619
2023-12-04T21:08:53.249Z,6.4556
2023-12-04T21:11:54.772Z,6.45592
2023-12-04T21:14:56.418Z,6.4613
2023-12-04T21:17:58.790Z,6.4575
2023-12-04T21:21:00.367Z,6.50976
2023-12-04T21:24:02.043Z,6.46035
2023-12-04T21:27:03.558Z,6.50881
2023-12-04T21:30:05.045Z,6.49994
2023-12-04T21:33:06.778Z,6.49677
2023-12-04T21:36:08.362Z,6.55474
2023-12-04T21:39:09.917Z,6.62125
2023-12-04T21:42:11.480Z,6.55315
2023-12-04T21:45:13.018Z,6.55917
2023-12-04T21:48:14.774Z,6.53795
2023-12-04T21:51:16.437Z,6.60858
2023-12-04T21:54:17.989Z,6.60414
2023-12-04T21:57:19.510Z,6.60034
2023-12-04T22:00:21.051Z,6.61966
2023-12-04T22:03:22.677Z,6.64754
2023-12-04T22:06:24.339Z,6.60605
2023-12-04T22:09:26.078Z,6.63772
2023-12-04T22:12:27.748Z,6.66211
2023-12-04T22:15:29.339Z,6.67034
2023-12-04T22:18:30.898Z,6.69378
2023-12-04T22:21:32.775Z,6.75079
2023-12-04T22:24:34.355Z,6.72513
2023-12-04T22:27:36.051Z,6.72672
2023-12-04T22:30:37.784Z,6.72038
2023-12-04T22:33:39.298Z,6.8021
2023-12-04T22:36:40.858Z,6.80527
2023-12-04T22:39:42.457Z,6.74034
2023-12-04T22:42:44.091Z,6.7321
2023-12-04T22:45:45.669Z,6.73432
2023-12-04T22:48:47.259Z,6.68618
2023-12-04T22:51:48.945Z,6.63297
2023-12-04T22:54:50.519Z,6.68269
2023-12-04T22:57:52.045Z,6.61745
2023-12-04T23:00:53.642Z,6.65387
2023-12-04T23:03:55.445Z,6.67984
2023-12-04T23:06:57.049Z,6.75522
2023-12-04T23:09:58.605Z,6.74572
2023-12-04T23:13:00.127Z,6.71468
2023-12-04T23:16:01.674Z,6.696
2023-12-04T23:19:03.383Z,6.68903
2023-12-04T23:22:05.187Z,6.6941
2023-12-04T23:25:06.770Z,6.73305
2023-12-04T23:28:08.273Z,6.71563
2023-12-04T23:31:09.760Z,6.73115
2023-12-04T23:34:11.369Z,6.72735
2023-12-04T23:37:12.959Z,6.74572
2023-12-04T23:40:14.463Z,6.70708
2023-12-04T23:43:15.962Z,6.67066
2023-12-04T23:46:18.449Z,6.64469
2023-12-04T23:49:20.118Z,6.6336
2023-12-04T23:52:21.657Z,6.58799
2023-12-04T23:55:23.215Z,6.60003
2023-12-04T23:58:24.714Z,6.62156
